Maywood, Missouri
Current Conditions -  °F | °C
As of 1:55 PM on Monday 22 Dec 2014 (Local Time) from KHAE Reporting Station
Haze Haze  
Wind Chill: 42°   Ceiling: 400
Heat Index: 45°   Visibility: 3mi
Dew Point: 41°   Wind: 5mph
Humidity: 87%   Direction: 140°SE
Pressure: 29.54"   Gusts: NA
Location:  39.91°N, 91.65°W
Report Text: KHAE 221955Z AUTO 14004KT 3SM BR OVC004 07/05 A2954 RMK AO2
Loading
Personal Weather Stations






























Interactive Weather Map New forecast layout! Learn more

10-Day Weather Forecast

Advertisements
Track Severe Weather on mobile